createdAt,value
2019-01-10T00:01:32.000Z,101000
2019-01-10T00:02:32.000Z,101001
2019-01-10T00:04:32.000Z,101008
2019-01-10T00:06:32.000Z,101013
2019-01-10T00:08:32.000Z,101011
2019-01-10T00:10:32.000Z,101016
2019-01-10T00:12:32.000Z,101024
2019-01-10T00:14:17.000Z,101022
2019-01-10T00:15:32.000Z,101016
2019-01-10T00:16:32.000Z,101013
2019-01-10T00:18:32.000Z,101019
2019-01-10T00:20:32.000Z,101018
2019-01-10T00:21:32.000Z,101018
2019-01-10T00:22:32.000Z,101013
2019-01-10T00:24:32.000Z,101014
2019-01-10T00:26:32.000Z,101017
2019-01-10T00:27:32.000Z,101019
2019-01-10T00:29:17.000Z,101022
2019-01-10T00:30:32.000Z,101026
2019-01-10T00:32:32.000Z,101027
2019-01-10T00:34:32.000Z,101029
2019-01-10T00:36:32.000Z,101028
2019-01-10T00:38:32.000Z,101032
2019-01-10T00:39:32.000Z,101038
2019-01-10T00:40:32.000Z,101034
2019-01-10T00:42:32.000Z,101032
2019-01-10T00:43:32.000Z,101031
2019-01-10T00:45:32.000Z,101040
2019-01-10T00:47:32.000Z,101037
2019-01-10T00:49:32.000Z,101040
2019-01-10T00:51:32.000Z,101042
2019-01-10T00:53:32.000Z,101041
2019-01-10T00:55:32.000Z,101037
2019-01-10T00:57:32.000Z,101038
2019-01-10T00:59:32.000Z,101043
2019-01-10T01:00:32.000Z,101039
2019-01-10T01:02:17.000Z,101040
2019-01-10T01:03:32.000Z,101043
2019-01-10T01:05:32.000Z,101033
2019-01-10T01:07:32.000Z,101036
2019-01-10T01:08:32.000Z,101031
2019-01-10T01:10:32.000Z,101030
2019-01-10T01:11:32.000Z,101034
2019-01-10T01:13:32.000Z,101039
2019-01-10T01:15:32.000Z,101040
2019-01-10T01:16:32.000Z,101047
2019-01-10T01:18:32.000Z,101050
2019-01-10T01:20:32.000Z,101062
2019-01-10T01:22:32.000Z,101061
2019-01-10T01:24:17.000Z,101068
2019-01-10T01:25:32.000Z,101065
2019-01-10T01:26:32.000Z,101072
2019-01-10T01:28:32.000Z,101066
2019-01-10T01:30:17.000Z,101072
2019-01-10T01:31:32.000Z,101066
2019-01-10T01:33:17.000Z,101067
2019-01-10T01:34:32.000Z,101072
2019-01-10T01:36:32.000Z,101075
2019-01-10T01:38:32.000Z,101077
2019-01-10T01:39:32.000Z,101080
2019-01-10T01:41:17.000Z,101086
2019-01-10T01:42:32.000Z,101082
2019-01-10T01:44:32.000Z,101079
2019-01-10T01:45:32.000Z,101083
2019-01-10T01:47:17.000Z,101076
2019-01-10T01:48:17.000Z,101079
2019-01-10T01:49:32.000Z,101084
2019-01-10T01:51:32.000Z,101089
2019-01-10T01:53:32.000Z,101089
2019-01-10T01:54:32.000Z,101088
2019-01-10T01:56:32.000Z,101091
2019-01-10T01:57:32.000Z,101085
2019-01-10T01:58:32.000Z,101094
2019-01-10T01:59:32.000Z,101095
2019-01-10T02:01:32.000Z,101094
2019-01-10T02:03:32.000Z,101090
2019-01-10T02:04:32.000Z,101089
2019-01-10T02:06:32.000Z,101099
2019-01-10T02:07:32.000Z,101102
2019-01-10T02:09:32.000Z,101107
2019-01-10T02:11:32.000Z,101110
2019-01-10T02:13:32.000Z,101112
2019-01-10T02:14:32.000Z,101111
2019-01-10T02:16:32.000Z,101113
2019-01-10T02:17:32.000Z,101116
2019-01-10T02:19:32.000Z,101116
2019-01-10T02:21:16.000Z,101113
2019-01-10T02:22:32.000Z,101108
2019-01-10T02:24:16.000Z,101120
2019-01-10T02:25:32.000Z,101114
2019-01-10T02:26:32.000Z,101115
2019-01-10T02:28:31.000Z,101113
2019-01-10T02:29:32.000Z,101116
2019-01-10T02:31:32.000Z,101119
2019-01-10T02:33:32.000Z,101120
2019-01-10T02:34:32.000Z,101124
2019-01-10T02:36:32.000Z,101124
2019-01-10T02:38:32.000Z,101125
2019-01-10T02:40:32.000Z,101131
2019-01-10T02:42:31.000Z,101136
2019-01-10T02:44:16.000Z,101138
2019-01-10T02:45:32.000Z,101134
2019-01-10T02:46:32.000Z,101138
2019-01-10T02:48:17.000Z,101134
2019-01-10T02:50:32.000Z,101141
2019-01-10T02:52:32.000Z,101141
2019-01-10T02:54:32.000Z,101146
2019-01-10T02:56:32.000Z,101149
2019-01-10T02:58:16.000Z,101148
2019-01-10T02:59:32.000Z,101146
2019-01-10T03:00:32.000Z,101150
2019-01-10T03:02:32.000Z,101143
2019-01-10T03:04:32.000Z,101136
2019-01-10T03:05:32.000Z,101132
2019-01-10T03:07:32.000Z,101133
2019-01-10T03:08:32.000Z,101130
2019-01-10T03:10:32.000Z,101134
2019-01-10T03:11:32.000Z,101136
2019-01-10T03:13:32.000Z,101135
2019-01-10T03:15:32.000Z,101140
2019-01-10T03:17:32.000Z,101141
2019-01-10T03:19:32.000Z,101137
2019-01-10T03:21:17.000Z,101138
2019-01-10T03:23:32.000Z,101141
2019-01-10T03:25:32.000Z,101141
2019-01-10T03:27:32.000Z,101134
2019-01-10T03:29:32.000Z,101134
2019-01-10T03:31:17.000Z,101131
2019-01-10T03:32:32.000Z,101137
2019-01-10T03:34:17.000Z,101131
2019-01-10T03:35:32.000Z,101128
2019-01-10T03:37:32.000Z,101128
2019-01-10T03:39:32.000Z,101125
2019-01-10T03:41:32.000Z,101133
2019-01-10T03:43:32.000Z,101128
2019-01-10T03:44:32.000Z,101133
2019-01-10T03:46:32.000Z,101130
2019-01-10T03:48:17.000Z,101128
2019-01-10T03:49:32.000Z,101131
2019-01-10T03:51:32.000Z,101127
2019-01-10T03:52:32.000Z,101139
2019-01-10T03:54:32.000Z,101131
2019-01-10T03:56:32.000Z,101134
2019-01-10T03:58:17.000Z,101131
2019-01-10T03:59:32.000Z,101135
2019-01-10T04:00:32.000Z,101137
2019-01-10T04:02:17.000Z,101134
2019-01-10T04:04:32.000Z,101140
2019-01-10T04:06:32.000Z,101141
2019-01-10T04:07:32.000Z,101140
2019-01-10T04:09:32.000Z,101141
2019-01-10T04:11:17.000Z,101152
2019-01-10T04:13:01.000Z,101149
2019-01-10T04:14:32.000Z,101145
2019-01-10T04:16:32.000Z,101148
2019-01-10T04:18:17.000Z,101145
2019-01-10T04:19:32.000Z,101145
2019-01-10T04:21:32.000Z,101149
2019-01-10T04:23:16.000Z,101147
2019-01-10T04:24:32.000Z,101144
2019-01-10T04:26:32.000Z,101141
2019-01-10T04:28:32.000Z,101147
2019-01-10T04:30:16.000Z,101154
2019-01-10T04:31:16.000Z,101156
2019-01-10T04:32:32.000Z,101151
2019-01-10T04:33:32.000Z,101153
2019-01-10T04:35:32.000Z,101151
2019-01-10T04:37:32.000Z,101156
2019-01-10T04:39:32.000Z,101156
2019-01-10T04:41:16.000Z,101157
2019-01-10T04:42:32.000Z,101158
2019-01-10T04:44:02.000Z,101156
2019-01-10T05:27:14.000Z,101164
2019-01-10T05:28:45.000Z,101167
2019-01-10T05:30:00.000Z,101160
2019-01-10T05:32:00.000Z,101165
2019-01-10T05:34:00.000Z,101166
2019-01-10T05:35:45.000Z,101157
2019-01-10T05:37:00.000Z,101161
2019-01-10T05:39:00.000Z,101166
2019-01-10T05:41:00.000Z,101165
2019-01-10T05:42:00.000Z,101162
2019-01-10T05:44:00.000Z,101159
2019-01-10T05:45:45.000Z,101167
2019-01-10T05:46:45.000Z,101166
2019-01-10T05:48:45.000Z,101158
2019-01-10T05:51:00.000Z,101165
2019-01-10T05:52:00.000Z,101163
2019-01-10T05:53:00.000Z,101164
2019-01-10T05:55:00.000Z,101170
2019-01-10T05:57:00.000Z,101167
2019-01-10T05:59:00.000Z,101167
2019-01-10T06:01:00.000Z,101176
2019-01-10T06:03:00.000Z,101170
2019-01-10T06:04:45.000Z,101167
2019-01-10T06:06:00.000Z,101170
2019-01-10T06:08:00.000Z,101172
2019-01-10T06:10:00.000Z,101178
2019-01-10T06:12:00.000Z,101181
2019-01-10T06:13:45.000Z,101182
2019-01-10T06:16:00.000Z,101187
2019-01-10T06:17:00.000Z,101184
2019-01-10T06:19:00.000Z,101183
2019-01-10T06:21:00.000Z,101184
2019-01-10T06:22:00.000Z,101188
2019-01-10T06:23:45.000Z,101188
2019-01-10T06:25:00.000Z,101192
2019-01-10T06:26:45.000Z,101192
2019-01-10T06:28:00.000Z,101202
2019-01-10T06:29:01.000Z,101207
2019-01-10T06:31:01.000Z,101216
2019-01-10T06:32:01.000Z,101212
2019-01-10T06:33:01.000Z,101218
2019-01-10T06:35:01.000Z,101214
2019-01-10T06:37:01.000Z,101213
2019-01-10T06:39:01.000Z,101216
2019-01-10T06:40:30.000Z,101225
2019-01-10T06:42:01.000Z,101224
2019-01-10T06:43:01.000Z,101227
2019-01-10T06:45:01.000Z,101223
2019-01-10T06:46:46.000Z,101219
2019-01-10T06:48:01.000Z,101220
2019-01-10T06:49:45.000Z,101222
2019-01-10T06:51:01.000Z,101225
2019-01-10T06:53:01.000Z,101226
2019-01-10T06:54:45.000Z,101219
2019-01-10T06:56:00.000Z,101223
2019-01-10T06:58:01.000Z,101233
2019-01-10T07:00:01.000Z,101234
2019-01-10T07:01:01.000Z,101232
2019-01-10T07:03:01.000Z,101227
2019-01-10T07:05:01.000Z,101234
2019-01-10T07:07:01.000Z,101234
2019-01-10T07:08:45.000Z,101238
2019-01-10T07:10:01.000Z,101244
2019-01-10T07:11:45.000Z,101249
2019-01-10T07:13:01.000Z,101257
2019-01-10T07:14:46.000Z,101255
2019-01-10T07:16:46.000Z,101261
2019-01-10T07:19:01.000Z,101256
2019-01-10T07:20:45.000Z,101259
2019-01-10T07:22:01.000Z,101252
2019-01-10T07:24:01.000Z,101251
2019-01-10T07:26:01.000Z,101253
2019-01-10T07:27:45.000Z,101239
2019-01-10T07:29:01.000Z,101237
2019-01-10T07:30:01.000Z,101233
2019-01-10T07:32:00.000Z,101249
2019-01-10T07:33:01.000Z,101240
2019-01-10T07:35:01.000Z,101256
2019-01-10T07:36:01.000Z,101243
2019-01-10T07:38:01.000Z,101245
2019-01-10T07:39:01.000Z,101253
2019-01-10T07:41:01.000Z,101254
2019-01-10T07:42:01.000Z,101257
2019-01-10T07:44:01.000Z,101263
2019-01-10T07:46:01.000Z,101262
2019-01-10T07:48:01.000Z,101262
2019-01-10T07:50:01.000Z,101264
2019-01-10T07:51:01.000Z,101263
2019-01-10T07:52:30.000Z,101260
2019-01-10T07:53:46.000Z,101251
2019-01-10T07:55:01.000Z,101269
2019-01-10T07:57:01.000Z,101269
2019-01-10T07:58:01.000Z,101264
2019-01-10T07:59:01.000Z,101268
2019-01-10T08:01:01.000Z,101267
2019-01-10T08:03:01.000Z,101268
2019-01-10T08:05:01.000Z,101268
2019-01-10T08:07:01.000Z,101267
2019-01-10T08:08:01.000Z,101269
2019-01-10T08:10:01.000Z,101266
2019-01-10T08:12:01.000Z,101271
2019-01-10T08:13:01.000Z,101271
2019-01-10T08:15:01.000Z,101279
2019-01-10T08:16:01.000Z,101276
2019-01-10T08:17:01.000Z,101278
2019-01-10T08:19:01.000Z,101282
2019-01-10T08:20:01.000Z,101282
2019-01-10T08:21:46.000Z,101281
2019-01-10T08:24:01.000Z,101292
2019-01-10T08:26:01.000Z,101291
2019-01-10T08:28:01.000Z,101294
2019-01-10T08:29:01.000Z,101302
2019-01-10T08:31:01.000Z,101300
2019-01-10T08:33:01.000Z,101305
2019-01-10T08:35:01.000Z,101301
2019-01-10T08:36:31.000Z,101305
2019-01-10T08:38:00.000Z,101309
2019-01-10T08:39:00.000Z,101309
2019-01-10T08:41:00.000Z,101310
2019-01-10T08:42:00.000Z,101312
2019-01-10T08:43:45.000Z,101311
2019-01-10T08:46:00.000Z,101326
2019-01-10T08:47:00.000Z,101315
2019-01-10T08:48:00.000Z,101305
2019-01-10T08:49:30.000Z,101309
2019-01-10T08:51:00.000Z,101308
2019-01-10T08:52:00.000Z,101310
2019-01-10T08:53:45.000Z,101305
2019-01-10T08:55:00.000Z,101304
2019-01-10T08:56:45.000Z,101302
2019-01-10T08:58:00.000Z,101302
2019-01-10T08:59:00.000Z,101303
2019-01-10T09:01:00.000Z,101304
2019-01-10T09:02:30.000Z,101307
2019-01-10T09:04:00.000Z,101309
2019-01-10T09:06:00.000Z,101308
2019-01-10T09:08:00.000Z,101306
2019-01-10T09:09:45.000Z,101308
2019-01-10T09:11:00.000Z,101304
2019-01-10T09:12:00.000Z,101304
2019-01-10T09:13:45.000Z,101301
2019-01-10T09:15:00.000Z,101315
2019-01-10T09:17:00.000Z,101311
2019-01-10T09:18:00.000Z,101309
2019-01-10T09:20:00.000Z,101309
2019-01-10T09:22:00.000Z,101311
2019-01-10T09:24:00.000Z,101309
2019-01-10T09:26:00.000Z,101317
2019-01-10T09:28:00.000Z,101317
2019-01-10T09:30:00.000Z,101320
2019-01-10T09:31:30.000Z,101325
2019-01-10T09:33:00.000Z,101326
2019-01-10T09:35:00.000Z,101327
2019-01-10T09:37:00.000Z,101329
2019-01-10T09:39:00.000Z,101322
2019-01-10T09:41:01.000Z,101325
2019-01-10T09:43:01.000Z,101341
2019-01-10T09:44:46.000Z,101333
2019-01-10T09:46:01.000Z,101329
2019-01-10T09:47:01.000Z,101331
2019-01-10T09:49:01.000Z,101326
2019-01-10T09:50:46.000Z,101333
2019-01-10T09:52:01.000Z,101332
2019-01-10T09:53:01.000Z,101335
2019-01-10T09:54:01.000Z,101331
2019-01-10T09:56:01.000Z,101337
2019-01-10T09:58:01.000Z,101342
2019-01-10T09:59:01.000Z,101341
2019-01-10T10:01:01.000Z,101347
2019-01-10T10:03:01.000Z,101343
2019-01-10T10:05:01.000Z,101345
2019-01-10T10:07:01.000Z,101344
2019-01-10T10:09:01.000Z,101332
2019-01-10T10:11:01.000Z,101344
2019-01-10T10:13:01.000Z,101346
2019-01-10T10:14:01.000Z,101339
2019-01-10T10:15:01.000Z,101344
2019-01-10T10:16:46.000Z,101345
2019-01-10T10:18:01.000Z,101348
2019-01-10T10:19:01.000Z,101345
2019-01-10T10:20:01.000Z,101342
2019-01-10T10:22:01.000Z,101345
2019-01-10T10:23:46.000Z,101349
2019-01-10T10:25:01.000Z,101345
2019-01-10T10:27:01.000Z,101346
2019-01-10T10:28:01.000Z,101342
2019-01-10T10:29:46.000Z,101342
2019-01-10T10:31:01.000Z,101348
2019-01-10T10:32:01.000Z,101349
2019-01-10T10:33:46.000Z,101347
2019-01-10T10:35:01.000Z,101345
2019-01-10T10:37:01.000Z,101346
2019-01-10T10:39:01.000Z,101354
2019-01-10T10:41:01.000Z,101355
2019-01-10T10:42:01.000Z,101353
2019-01-10T10:44:01.000Z,101351
2019-01-10T10:45:00.000Z,101358
2019-01-10T10:46:00.000Z,101350
2019-01-10T10:48:00.000Z,101345
2019-01-10T10:49:45.000Z,101347
2019-01-10T10:51:00.000Z,101357
2019-01-10T10:53:00.000Z,101358
2019-01-10T10:55:00.000Z,101355
2019-01-10T10:56:00.000Z,101355
2019-01-10T10:58:00.000Z,101354
2019-01-10T10:59:00.000Z,101362
2019-01-10T11:00:45.000Z,101355
2019-01-10T11:03:00.000Z,101350
2019-01-10T11:05:00.000Z,101356
2019-01-10T11:07:00.000Z,101337
2019-01-10T11:08:00.000Z,101340
2019-01-10T11:10:00.000Z,101338
2019-01-10T11:12:00.000Z,101345
2019-01-10T11:14:00.000Z,101351
2019-01-10T11:15:45.000Z,101348
2019-01-10T11:17:00.000Z,101348
2019-01-10T11:19:00.000Z,101343
2019-01-10T11:20:00.000Z,101342
2019-01-10T11:22:00.000Z,101334
2019-01-10T11:24:00.000Z,101338
2019-01-10T11:26:00.000Z,101339
2019-01-10T11:27:30.000Z,101338
2019-01-10T11:29:00.000Z,101337
2019-01-10T11:31:00.000Z,101336
2019-01-10T11:32:00.000Z,101336
2019-01-10T11:34:00.000Z,101334
2019-01-10T11:35:00.000Z,101328
2019-01-10T11:36:45.000Z,101328
2019-01-10T11:38:00.000Z,101327
2019-01-10T11:39:00.000Z,101331
2019-01-10T11:41:00.000Z,101323
2019-01-10T11:43:00.000Z,101330
2019-01-10T11:45:00.000Z,101335
2019-01-10T11:47:00.000Z,101331
2019-01-10T11:48:00.000Z,101325
2019-01-10T11:50:01.000Z,101323
2019-01-10T11:51:01.000Z,101324
2019-01-10T11:52:01.000Z,101324
2019-01-10T11:53:31.000Z,101319
2019-01-10T11:55:01.000Z,101323
2019-01-10T11:56:01.000Z,101323
2019-01-10T11:58:01.000Z,101333
2019-01-10T12:00:01.000Z,101329
2019-01-10T12:02:01.000Z,101327
2019-01-10T12:05:42.000Z,101311
2019-01-10T12:07:57.000Z,101314
2019-01-10T12:09:57.000Z,101313
2019-01-10T12:11:57.000Z,101321
2019-01-10T12:13:57.000Z,101314
2019-01-10T12:15:42.000Z,101320
2019-01-10T12:17:57.000Z,101309
2019-01-10T12:18:57.000Z,101310
2019-01-10T12:20:57.000Z,101317
2019-01-10T12:22:57.000Z,101324
2019-01-10T12:23:57.000Z,101316
2019-01-10T12:25:57.000Z,101314
2019-01-10T12:27:57.000Z,101316
2019-01-10T12:28:57.000Z,101309
2019-01-10T12:30:57.000Z,101307
2019-01-10T12:31:57.000Z,101304
2019-01-10T12:33:57.000Z,101303
2019-01-10T12:35:57.000Z,101303
2019-01-10T12:37:42.000Z,101309
2019-01-10T12:38:57.000Z,101302
2019-01-10T12:39:57.000Z,101299
2019-01-10T12:41:57.000Z,101300
2019-01-10T12:43:57.000Z,101295
2019-01-10T12:45:57.000Z,101298
2019-01-10T12:46:57.000Z,101297
2019-01-10T12:48:57.000Z,101300
2019-01-10T12:50:57.000Z,101292
2019-01-10T12:51:57.000Z,101296
2019-01-10T12:53:56.000Z,101301
2019-01-10T12:54:56.000Z,101294
2019-01-10T12:56:56.000Z,101291
2019-01-10T12:58:56.000Z,101289
2019-01-10T13:00:56.000Z,101282
2019-01-10T13:01:56.000Z,101291
2019-01-10T13:02:56.000Z,101291
2019-01-10T13:03:57.000Z,101291
2019-01-10T13:05:41.000Z,101294
2019-01-10T13:06:56.000Z,101299
2019-01-10T13:08:56.000Z,101296
2019-01-10T13:10:56.000Z,101294
2019-01-10T13:12:56.000Z,101294
2019-01-10T13:14:56.000Z,101299
2019-01-10T13:16:41.000Z,101304
2019-01-10T13:17:56.000Z,101300
2019-01-10T13:18:57.000Z,101304
2019-01-10T13:20:26.000Z,101295
2019-01-10T13:21:56.000Z,101309
2019-01-10T13:22:56.000Z,101307
2019-01-10T13:24:42.000Z,101308
2019-01-10T13:26:56.000Z,101319
2019-01-10T13:28:56.000Z,101309
2019-01-10T13:30:42.000Z,101306
2019-01-10T13:32:56.000Z,101304
2019-01-10T13:34:56.000Z,101317
2019-01-10T13:35:57.000Z,101313
2019-01-10T13:37:56.000Z,101317
2019-01-10T13:38:57.000Z,101320
2019-01-10T13:40:56.000Z,101314
2019-01-10T13:41:56.000Z,101313
2019-01-10T13:43:56.000Z,101317
2019-01-10T13:45:41.000Z,101322
2019-01-10T13:47:56.000Z,101322
2019-01-10T13:48:56.000Z,101321
2019-01-10T13:50:56.000Z,101324
2019-01-10T13:52:56.000Z,101336
2019-01-10T13:54:56.000Z,101331
2019-01-10T13:55:57.000Z,101333
2019-01-10T13:57:26.000Z,101326
2019-01-10T13:58:42.000Z,101325
2019-01-10T13:59:57.000Z,101321
2019-01-10T14:01:57.000Z,101321
2019-01-10T14:03:57.000Z,101324
2019-01-10T14:05:57.000Z,101327
2019-01-10T14:07:42.000Z,101327
2019-01-10T14:09:57.000Z,101329
2019-01-10T14:11:57.000Z,101326
2019-01-10T14:13:41.000Z,101326
2019-01-10T14:14:57.000Z,101329
2019-01-10T14:15:57.000Z,101328
2019-01-10T14:17:57.000Z,101329
2019-01-10T14:19:41.000Z,101328
2019-01-10T14:20:57.000Z,101331
2019-01-10T14:22:57.000Z,101322
2019-01-10T14:24:41.000Z,101315
2019-01-10T14:25:57.000Z,101317
2019-01-10T14:27:26.000Z,101318
2019-01-10T14:28:57.000Z,101313
2019-01-10T14:30:57.000Z,101311
2019-01-10T14:32:57.000Z,101310
2019-01-10T14:34:57.000Z,101312
2019-01-10T14:36:57.000Z,101308
2019-01-10T14:38:57.000Z,101306
2019-01-10T14:39:57.000Z,101305
2019-01-10T14:41:41.000Z,101312
2019-01-10T14:42:57.000Z,101314
2019-01-10T14:44:57.000Z,101308
2019-01-10T14:46:57.000Z,101309
2019-01-10T14:48:57.000Z,101300
2019-01-10T14:50:57.000Z,101301
2019-01-10T14:51:57.000Z,101301
2019-01-10T14:53:57.000Z,101302
2019-01-10T14:54:57.000Z,101308
2019-01-10T14:56:57.000Z,101314
2019-01-10T14:58:57.000Z,101305
2019-01-10T14:59:57.000Z,101307
2019-01-10T15:00:56.000Z,101309
2019-01-10T15:02:56.000Z,101309
2019-01-10T15:03:56.000Z,101309
2019-01-10T15:05:56.000Z,101302
2019-01-10T15:07:41.000Z,101306
2019-01-10T15:08:56.000Z,101300
2019-01-10T15:10:56.000Z,101309
2019-01-10T15:12:56.000Z,101308
2019-01-10T15:13:56.000Z,101309
2019-01-10T15:15:56.000Z,101318
2019-01-10T15:16:56.000Z,101310
2019-01-10T15:18:56.000Z,101315
2019-01-10T15:20:56.000Z,101320
2019-01-10T15:21:56.000Z,101317
2019-01-10T15:23:56.000Z,101316
2019-01-10T15:25:56.000Z,101317
2019-01-10T15:27:56.000Z,101316
2019-01-10T15:29:56.000Z,101321
2019-01-10T15:31:56.000Z,101317
2019-01-10T15:33:56.000Z,101312
2019-01-10T15:35:56.000Z,101311
2019-01-10T15:36:56.000Z,101314
2019-01-10T15:37:56.000Z,101313
2019-01-10T15:39:56.000Z,101310
2019-01-10T15:41:56.000Z,101313
2019-01-10T15:43:56.000Z,101314
2019-01-10T15:45:56.000Z,101320
2019-01-10T15:46:56.000Z,101321
2019-01-10T15:48:56.000Z,101317
2019-01-10T15:49:56.000Z,101311
2019-01-10T15:50:56.000Z,101326
2019-01-10T15:52:56.000Z,101318
2019-01-10T15:54:56.000Z,101320
2019-01-10T15:55:56.000Z,101322
2019-01-10T15:57:41.000Z,101320
2019-01-10T15:58:56.000Z,101326
2019-01-10T15:59:56.000Z,101324
2019-01-10T16:01:56.000Z,101326
2019-01-10T16:03:26.000Z,101323
2019-01-10T16:04:57.000Z,101320
2019-01-10T16:06:41.000Z,101315
2019-01-10T16:07:57.000Z,101314
2019-01-10T16:08:57.000Z,101311
2019-01-10T16:10:57.000Z,101317
2019-01-10T16:12:57.000Z,101320
2019-01-10T16:14:57.000Z,101320
2019-01-10T16:16:57.000Z,101315
2019-01-10T16:18:57.000Z,101322
2019-01-10T16:20:57.000Z,101320
2019-01-10T16:21:57.000Z,101318
2019-01-10T16:23:57.000Z,101312
2019-01-10T16:25:41.000Z,101317
2019-01-10T16:26:57.000Z,101315
2019-01-10T16:28:26.000Z,101316
2019-01-10T16:29:57.000Z,101313
2019-01-10T16:31:56.000Z,101311
2019-01-10T16:32:57.000Z,101310
2019-01-10T16:33:57.000Z,101313
2019-01-10T16:35:57.000Z,101315
2019-01-10T16:37:57.000Z,101312
2019-01-10T16:39:57.000Z,101318
2019-01-10T16:40:57.000Z,101316
2019-01-10T16:42:57.000Z,101311
2019-01-10T16:44:57.000Z,101318
2019-01-10T16:46:57.000Z,101319
2019-01-10T16:48:57.000Z,101317
2019-01-10T16:49:57.000Z,101319
2019-01-10T16:51:57.000Z,101316
2019-01-10T16:52:57.000Z,101315
2019-01-10T16:53:57.000Z,101321
2019-01-10T16:54:57.000Z,101321
2019-01-10T16:56:57.000Z,101313
2019-01-10T16:58:57.000Z,101315
2019-01-10T17:00:57.000Z,101310
2019-01-10T17:02:57.000Z,101313
2019-01-10T17:04:57.000Z,101315
2019-01-10T17:05:57.000Z,101314
2019-01-10T17:07:57.000Z,101311
2019-01-10T17:08:56.000Z,101324
2019-01-10T17:10:56.000Z,101319
2019-01-10T17:12:41.000Z,101318
2019-01-10T17:13:41.000Z,101316
2019-01-10T17:14:56.000Z,101316
2019-01-10T17:16:56.000Z,101314
2019-01-10T17:18:56.000Z,101314
2019-01-10T17:20:26.000Z,101318
2019-01-10T17:21:56.000Z,101315
2019-01-10T17:22:56.000Z,101319
2019-01-10T17:24:56.000Z,101315
2019-01-10T17:26:26.000Z,101312
2019-01-10T18:09:38.000Z,101332
2019-01-10T18:11:25.000Z,101325
2019-01-10T18:13:25.000Z,101324
2019-01-10T18:14:25.000Z,101321
2019-01-10T18:16:25.000Z,101322
2019-01-10T18:17:25.000Z,101324
2019-01-10T18:19:09.000Z,101325
2019-01-10T18:20:25.000Z,101323
2019-01-10T18:21:54.000Z,101323
2019-01-10T18:23:10.000Z,101320
2019-01-10T18:25:25.000Z,101324
2019-01-10T18:27:10.000Z,101322
2019-01-10T18:28:25.000Z,101321
2019-01-10T18:30:25.000Z,101322
2019-01-10T18:31:25.000Z,101322
2019-01-10T18:33:25.000Z,101328
2019-01-10T18:35:25.000Z,101327
2019-01-10T18:37:24.000Z,101327
2019-01-10T18:38:25.000Z,101329
2019-01-10T18:39:25.000Z,101323
2019-01-10T18:41:10.000Z,101319
2019-01-10T18:43:10.000Z,101321
2019-01-10T18:45:10.000Z,101319
2019-01-10T18:46:25.000Z,101321
2019-01-10T18:47:25.000Z,101320
2019-01-10T18:49:24.000Z,101314
2019-01-10T18:50:25.000Z,101322
2019-01-10T18:51:55.000Z,101324
2019-01-10T18:53:25.000Z,101321
2019-01-10T18:54:55.000Z,101317
2019-01-10T18:56:25.000Z,101317
2019-01-10T18:57:25.000Z,101315
2019-01-10T18:59:25.000Z,101315
2019-01-10T19:00:25.000Z,101322
2019-01-10T19:01:25.000Z,101319
2019-01-10T19:02:25.000Z,101318
2019-01-10T19:04:09.000Z,101313
2019-01-10T19:05:25.000Z,101319
2019-01-10T19:07:24.000Z,101313
2019-01-10T19:08:25.000Z,101317
2019-01-10T19:10:25.000Z,101317
2019-01-10T19:11:25.000Z,101318
2019-01-10T19:13:25.000Z,101314
2019-01-10T19:15:24.000Z,101321
2019-01-10T19:17:24.000Z,101320
2019-01-10T19:19:24.000Z,101319
2019-01-10T19:21:24.000Z,101317
2019-01-10T19:23:24.000Z,101315
2019-01-10T19:25:24.000Z,101315
2019-01-10T19:26:24.000Z,101323
2019-01-10T19:27:24.000Z,101315
2019-01-10T19:28:24.000Z,101319
2019-01-10T19:29:24.000Z,101316
2019-01-10T19:30:24.000Z,101310
2019-01-10T19:32:24.000Z,101314
2019-01-10T19:33:24.000Z,101314
2019-01-10T19:35:24.000Z,101312
2019-01-10T19:36:24.000Z,101313
2019-01-10T19:37:54.000Z,101307
2019-01-10T19:39:24.000Z,101312
2019-01-10T19:41:09.000Z,101312
2019-01-10T19:42:09.000Z,101311
2019-01-10T19:44:24.000Z,101320
2019-01-10T19:46:24.000Z,101318
2019-01-10T19:48:24.000Z,101314
2019-01-10T19:49:54.000Z,101315
2019-01-10T19:51:24.000Z,101322
2019-01-10T19:52:24.000Z,101323
2019-01-10T19:53:24.000Z,101322
2019-01-10T19:55:24.000Z,101320
2019-01-10T19:56:24.000Z,101321
2019-01-10T19:58:09.000Z,101324
2019-01-10T20:00:24.000Z,101328
2019-01-10T20:02:24.000Z,101322
2019-01-10T20:03:24.000Z,101324
2019-01-10T20:05:24.000Z,101327
2019-01-10T20:06:24.000Z,101325
2019-01-10T20:08:24.000Z,101328
2019-01-10T20:10:24.000Z,101330
2019-01-10T20:12:24.000Z,101331
2019-01-10T20:14:24.000Z,101335
2019-01-10T20:16:24.000Z,101327
2019-01-10T20:17:24.000Z,101328
2019-01-10T20:19:10.000Z,101330
2019-01-10T20:20:25.000Z,101328
2019-01-10T20:21:25.000Z,101330
2019-01-10T20:23:25.000Z,101334
2019-01-10T20:24:55.000Z,101332
2019-01-10T20:26:25.000Z,101328
2019-01-10T20:27:25.000Z,101334
2019-01-10T20:28:25.000Z,101333
2019-01-10T20:30:25.000Z,101325
2019-01-10T20:32:10.000Z,101327
2019-01-10T20:33:25.000Z,101332
2019-01-10T20:34:25.000Z,101331
2019-01-10T20:36:25.000Z,101333
2019-01-10T20:38:25.000Z,101335
2019-01-10T20:40:25.000Z,101330
2019-01-10T20:41:55.000Z,101326
2019-01-10T20:43:25.000Z,101329
2019-01-10T20:44:25.000Z,101325
2019-01-10T20:46:25.000Z,101324
2019-01-10T20:47:25.000Z,101329
2019-01-10T20:49:25.000Z,101327
2019-01-10T20:51:25.000Z,101326
2019-01-10T20:52:25.000Z,101326
2019-01-10T20:54:25.000Z,101329
2019-01-10T20:56:10.000Z,101329
2019-01-10T20:57:25.000Z,101331
2019-01-10T20:59:25.000Z,101331
2019-01-10T21:00:25.000Z,101333
2019-01-10T21:01:25.000Z,101331
2019-01-10T21:03:25.000Z,101329
2019-01-10T21:05:25.000Z,101336
2019-01-10T21:07:10.000Z,101331
2019-01-10T21:08:25.000Z,101326
2019-01-10T21:10:10.000Z,101329
2019-01-10T21:11:10.000Z,101334
2019-01-10T21:12:25.000Z,101341
2019-01-10T21:14:25.000Z,101327
2019-01-10T21:15:55.000Z,101327
2019-01-10T21:17:25.000Z,101323
2019-01-10T21:18:25.000Z,101319
2019-01-10T21:20:25.000Z,101324
2019-01-10T21:21:25.000Z,101324
2019-01-10T21:22:24.000Z,101322
2019-01-10T21:23:24.000Z,101326
2019-01-10T21:25:09.000Z,101324
2019-01-10T21:26:24.000Z,101319
2019-01-10T21:27:24.000Z,101326
2019-01-10T21:28:24.000Z,101323
2019-01-10T21:30:24.000Z,101313
2019-01-10T21:32:09.000Z,101307
2019-01-10T21:33:24.000Z,101313
2019-01-10T21:35:24.000Z,101319
2019-01-10T21:37:09.000Z,101322
2019-01-10T21:38:24.000Z,101325
2019-01-10T21:40:24.000Z,101328